createdAt,value
2019-05-03T00:01:44.858Z,97434.11
2019-05-03T00:04:16.024Z,97427.75
2019-05-03T00:06:47.620Z,97424.42
2019-05-03T00:09:17.990Z,97424.02
2019-05-03T00:11:48.174Z,97420.83
2019-05-03T00:14:18.642Z,97424.42
2019-05-03T00:16:52.094Z,97416.92
2019-05-03T00:19:22.186Z,97413.92
2019-05-03T00:21:52.700Z,97416.52
2019-05-03T00:24:22.991Z,97421.05
2019-05-03T00:26:53.268Z,97422.39
2019-05-03T00:29:23.629Z,97420.56
2019-05-03T00:31:54.401Z,97426.77
2019-05-03T00:34:29.590Z,97420.88
2019-05-03T00:37:01.847Z,97420.02
2019-05-03T00:39:37.096Z,97415.34
2019-05-03T00:42:07.483Z,97417.80
2019-05-03T00:44:38.171Z,97409.69
2019-05-03T00:47:08.339Z,97406.49
2019-05-03T00:49:38.524Z,97409.59
2019-05-03T00:52:08.828Z,97405.55
2019-05-03T00:54:38.995Z,97402.69
2019-05-03T00:57:09.286Z,97397.91
2019-05-03T00:59:39.459Z,97404.80
2019-05-03T01:02:11.652Z,97402.69
2019-05-03T01:04:42.691Z,97404.59
2019-05-03T01:07:12.897Z,97407.51
2019-05-03T01:09:43.154Z,97407.22
2019-05-03T01:12:13.432Z,97405.68
2019-05-03T01:14:45.344Z,97403.70
2019-05-03T01:17:15.610Z,97410.75
2019-05-03T01:19:45.875Z,97400.99
2019-05-03T01:22:16.196Z,97410.12
2019-05-03T01:24:46.476Z,97402.80
2019-05-03T01:27:16.983Z,97407.07
2019-05-03T01:29:47.332Z,97402.54
2019-05-03T01:32:17.565Z,97413.67
2019-05-03T01:34:47.919Z,97408.20
2019-05-03T01:37:18.099Z,97414.31
2019-05-03T01:39:48.260Z,97409.55
2019-05-03T01:42:18.579Z,97414.89
2019-05-03T01:44:48.786Z,97412.06
2019-05-03T01:47:26.329Z,97419.30
2019-05-03T01:50:07.358Z,97414.00
2019-05-03T01:52:41.835Z,97419.53
2019-05-03T01:55:15.521Z,97414.56
2019-05-03T01:57:44.215Z,97417.58
2019-05-03T02:00:19.481Z,97409.77
2019-05-03T02:02:58.169Z,97407.88
2019-05-03T02:05:47.443Z,97406.30
2019-05-03T02:08:17.916Z,97406.16
2019-05-03T02:10:48.261Z,97410.40
2019-05-03T02:13:18.524Z,97410.30
2019-05-03T02:15:48.675Z,97411.66
2019-05-03T02:18:18.850Z,97411.42
2019-05-03T02:20:49.122Z,97408.66
2019-05-03T02:23:19.378Z,97415.96
2019-05-03T02:25:55.971Z,97414.61
2019-05-03T02:28:22.029Z,97413.80
2019-05-03T02:30:53.453Z,97412.45
2019-05-03T02:33:24.065Z,97419.28
2019-05-03T02:35:54.377Z,97416.91
2019-05-03T02:38:25.189Z,97417.64
2019-05-03T02:40:55.384Z,97414.04
2019-05-03T02:43:39.414Z,97407.16
2019-05-03T02:46:31.552Z,97406.87
2019-05-03T02:49:39.879Z,97411.22
2019-05-03T02:52:29.220Z,97412.75
2019-05-03T02:54:59.411Z,97415.23
2019-05-03T02:57:29.617Z,97425.17
2019-05-03T03:00:00.280Z,97422.47
2019-05-03T03:02:30.751Z,97420.54
2019-05-03T03:05:01.136Z,97426.08
2019-05-03T03:07:32.350Z,97421.93
2019-05-03T03:10:05.142Z,97424.24
2019-05-03T03:12:35.601Z,97421.55
2019-05-03T03:15:06.420Z,97426.42
2019-05-03T03:17:37.747Z,97430.67
2019-05-03T03:20:09.132Z,97428.19
2019-05-03T03:22:45.794Z,97421.37
2019-05-03T03:25:25.916Z,97426.70
2019-05-03T03:28:00.045Z,97424.34
2019-05-03T03:31:11.312Z,97427.27
2019-05-03T03:33:41.413Z,97425.75
2019-05-03T03:36:37.798Z,97426.95
2019-05-03T03:38:45.765Z,97421.00
2019-05-03T03:41:16.605Z,97425.31
2019-05-03T03:43:46.989Z,97427.95
2019-05-03T03:46:18.012Z,97427.11
2019-05-03T03:48:48.358Z,97426.08
2019-05-03T03:51:20.698Z,97431.48
2019-05-03T03:53:55.470Z,97431.39
2019-05-03T03:56:26.868Z,97428.14
2019-05-03T03:58:57.405Z,97433.98
2019-05-03T04:01:28.183Z,97434.47
2019-05-03T04:03:58.404Z,97439.39
2019-05-03T04:06:46.308Z,97434.59
2019-05-03T04:09:16.190Z,97438.32
2019-05-03T04:11:47.243Z,97444.88
2019-05-03T04:14:25.285Z,97449.35
2019-05-03T04:17:15.078Z,97451.93
2019-05-03T04:19:46.372Z,97455.83
2019-05-03T04:22:16.716Z,97462.58
2019-05-03T04:24:46.937Z,97461.00
2019-05-03T04:27:23.034Z,97458.68
2019-05-03T04:29:49.834Z,97458.53
2019-05-03T04:32:20.095Z,97460.23
2019-05-03T04:34:50.430Z,97465.09
2019-05-03T04:37:20.675Z,97470.69
2019-05-03T04:39:51.052Z,97471.64
2019-05-03T04:42:21.141Z,97468.14
2019-05-03T04:44:51.355Z,97469.11
2019-05-03T04:47:21.593Z,97475.75
2019-05-03T04:49:51.738Z,97479.32
2019-05-03T04:52:21.871Z,97471.56
2019-05-03T04:54:56.922Z,97475.88
2019-05-03T04:57:40.023Z,97476.68
2019-05-03T05:00:00.294Z,97477.48
2019-05-03T05:02:30.586Z,97475.99
2019-05-03T05:05:00.725Z,97479.50
2019-05-03T05:07:30.883Z,97489.76
2019-05-03T05:10:01.160Z,97494.51
2019-05-03T05:12:31.503Z,97492.17
2019-05-03T05:15:02.074Z,97491.50
2019-05-03T05:17:57.623Z,97496.72
2019-05-03T05:20:42.494Z,97493.63
2019-05-03T05:23:14.669Z,97493.86
2019-05-03T05:25:51.076Z,97499.14
2019-05-03T05:28:52.576Z,97502.08
2019-05-03T05:31:23.011Z,97500.87
2019-05-03T05:33:54.540Z,97510.41
2019-05-03T05:36:24.836Z,97512.23
2019-05-03T05:38:55.429Z,97518.86
2019-05-03T05:41:25.919Z,97516.09
2019-05-03T05:43:56.408Z,97517.31
2019-05-03T05:46:31.117Z,97517.66
2019-05-03T05:49:04.288Z,97512.81
2019-05-03T05:51:35.326Z,97517.37
2019-05-03T05:54:05.980Z,97524.06
2019-05-03T05:56:47.790Z,97526.05
2019-05-03T05:59:46.091Z,97529.34
2019-05-03T06:02:18.313Z,97534.97
2019-05-03T06:04:48.690Z,97541.75
2019-05-03T06:07:47.098Z,97539.53
2019-05-03T06:10:25.942Z,97536.41
2019-05-03T06:13:05.429Z,97541.73
2019-05-03T06:15:54.818Z,97542.70
2019-05-03T06:18:30.819Z,97545.45
2019-05-03T06:21:11.416Z,97553.69
2019-05-03T06:23:47.867Z,97549.72
2019-05-03T06:26:35.637Z,97553.84
2019-05-03T06:29:07.769Z,97564.19
2019-05-03T06:31:55.616Z,97568.08
2019-05-03T06:34:26.684Z,97575.20
2019-05-03T06:36:58.872Z,97577.36
2019-05-03T06:39:30.119Z,97589.52
2019-05-03T06:42:00.446Z,97588.84
2019-05-03T06:44:30.791Z,97590.27
2019-05-03T06:47:06.040Z,97602.08
2019-05-03T06:49:34.569Z,97599.09
2019-05-03T06:52:05.938Z,97604.34
2019-05-03T06:54:37.884Z,97607.25
2019-05-03T06:57:10.386Z,97609.20
2019-05-03T06:59:46.907Z,97611.80
2019-05-03T07:02:45.432Z,97613.63
2019-05-03T07:05:26.041Z,97618.78
2019-05-03T07:08:01.401Z,97618.86
2019-05-03T07:10:41.054Z,97617.86
2019-05-03T07:13:11.472Z,97620.38
2019-05-03T07:15:41.912Z,97619.03
2019-05-03T07:18:12.183Z,97620.81
2019-05-03T07:20:46.252Z,97622.59
2019-05-03T07:23:16.637Z,97618.95
2019-05-03T07:25:46.958Z,97623.84
2019-05-03T07:28:18.182Z,97622.43
2019-05-03T07:30:48.373Z,97622.20
2019-05-03T07:33:27.783Z,97629.98
2019-05-03T07:35:58.162Z,97631.33
2019-05-03T07:38:28.463Z,97635.61
2019-05-03T07:40:59.859Z,97637.63
2019-05-03T07:43:30.030Z,97644.24
2019-05-03T07:46:00.682Z,97643.86
2019-05-03T07:48:31.061Z,97652.47
2019-05-03T07:51:02.122Z,97645.94
2019-05-03T07:53:34.903Z,97651.30
2019-05-03T07:56:11.418Z,97656.90
2019-05-03T07:58:48.882Z,97654.69
2019-05-03T08:01:25.134Z,97655.84
2019-05-03T08:03:55.782Z,97647.11
2019-05-03T08:06:26.077Z,97649.84
2019-05-03T08:08:56.536Z,97648.49
2019-05-03T08:11:26.777Z,97654.11
2019-05-03T08:13:57.384Z,97653.87
2019-05-03T08:16:27.856Z,97656.48
2019-05-03T08:18:58.227Z,97660.16
2019-05-03T08:21:28.516Z,97658.14
2019-05-03T08:23:59.236Z,97658.05
2019-05-03T08:26:29.662Z,97653.17
2019-05-03T08:29:12.670Z,97649.10
2019-05-03T08:31:49.620Z,97650.83
2019-05-03T08:34:41.807Z,97649.48
2019-05-03T08:37:18.068Z,97652.66
2019-05-03T08:39:48.279Z,97655.63
2019-05-03T08:42:25.226Z,97656.89
2019-05-03T08:44:55.531Z,97657.12
2019-05-03T08:47:25.998Z,97652.46
2019-05-03T08:49:56.334Z,97659.44
2019-05-03T08:52:26.566Z,97661.78
2019-05-03T08:54:57.171Z,97666.39
2019-05-03T08:57:27.600Z,97662.27
2019-05-03T08:59:57.686Z,97666.84
2019-05-03T09:02:28.291Z,97662.20
2019-05-03T09:04:58.979Z,97664.77
2019-05-03T09:07:29.325Z,97668.14
2019-05-03T09:10:24.988Z,97661.19
2019-05-03T09:13:06.791Z,97668.14
2019-05-03T09:15:37.627Z,97672.44
2019-05-03T09:18:08.169Z,97680.42
2019-05-03T09:20:38.556Z,97675.81
2019-05-03T09:23:08.741Z,97672.37
2019-05-03T09:25:39.051Z,97675.87
2019-05-03T09:28:09.588Z,97674.92
2019-05-03T09:30:40.077Z,97669.75
2019-05-03T09:33:10.529Z,97662.13
2019-05-03T09:35:40.820Z,97668.84
2019-05-03T09:38:11.222Z,97668.80
2019-05-03T09:40:41.680Z,97665.09
2019-05-03T09:43:15.095Z,97665.48
2019-05-03T09:45:45.653Z,97668.53
2019-05-03T09:48:16.304Z,97667.59
2019-05-03T09:50:46.538Z,97661.99
2019-05-03T09:53:18.585Z,97666.08
2019-05-03T09:55:48.848Z,97664.41
2019-05-03T09:58:19.292Z,97663.53
2019-05-03T10:00:50.175Z,97662.98
2019-05-03T10:03:20.527Z,97665.59
2019-05-03T10:05:50.808Z,97665.36
2019-05-03T10:08:20.982Z,97665.13
2019-05-03T10:11:08.891Z,97672.55
2019-05-03T10:13:41.845Z,97676.02
2019-05-03T10:16:11.321Z,97673.24
2019-05-03T10:18:41.945Z,97669.80
2019-05-03T10:21:14.662Z,97673.23
2019-05-03T10:23:45.249Z,97670.16
2019-05-03T10:26:15.815Z,97670.16
2019-05-03T10:28:46.362Z,97659.13
2019-05-03T10:31:17.024Z,97661.73
2019-05-03T10:33:55.997Z,97660.73
2019-05-03T10:36:26.298Z,97661.92
2019-05-03T10:38:56.559Z,97658.06
2019-05-03T10:41:26.881Z,97659.36
2019-05-03T10:43:57.183Z,97661.66
2019-05-03T10:46:28.126Z,97657.14
2019-05-03T10:48:58.519Z,97655.63
2019-05-03T10:51:31.095Z,97652.91
2019-05-03T10:54:01.488Z,97665.11
2019-05-03T10:56:47.192Z,97659.31
2019-05-03T10:59:18.127Z,97660.54
2019-05-03T11:02:07.846Z,97655.59
2019-05-03T11:04:38.403Z,97654.88
2019-05-03T11:07:08.592Z,97654.97
2019-05-03T11:09:48.840Z,97653.87
2019-05-03T11:12:14.748Z,97653.83
2019-05-03T11:14:45.593Z,97651.35
2019-05-03T11:17:16.100Z,97652.80
2019-05-03T11:19:46.578Z,97648.72
2019-05-03T11:22:16.907Z,97641.97
2019-05-03T11:24:47.570Z,97643.28
2019-05-03T11:27:24.707Z,97640.88
2019-05-03T11:29:59.278Z,97642.57
2019-05-03T11:32:41.603Z,97637.95
2019-05-03T11:35:26.795Z,97634.81
2019-05-03T11:38:19.642Z,97631.39
2019-05-03T11:40:51.415Z,97637.79
2019-05-03T11:43:24.724Z,97632.22
2019-05-03T11:45:55.616Z,97634.05
2019-05-03T11:48:26.101Z,97625.63
2019-05-03T11:50:59.095Z,97625.28
2019-05-03T11:53:29.369Z,97621.55
2019-05-03T11:56:00.055Z,97619.73
2019-05-03T11:58:30.619Z,97613.16
2019-05-03T12:01:29.423Z,97610.55
2019-05-03T12:04:05.055Z,97610.81
2019-05-03T12:06:36.819Z,97620.78
2019-05-03T12:09:09.266Z,97617.84
2019-05-03T12:11:40.528Z,97602.66
2019-05-03T12:14:11.644Z,97603.19
2019-05-03T12:19:30.433Z,97602.63
2019-05-03T12:21:55.605Z,97595.15
2019-05-03T12:24:27.098Z,97594.71
2019-05-03T12:26:58.563Z,97594.70
2019-05-03T12:29:29.450Z,97595.26
2019-05-03T12:32:00.025Z,97596.95
2019-05-03T12:34:30.862Z,97596.65
2019-05-03T12:37:01.888Z,97596.92
2019-05-03T12:39:35.892Z,97593.37
2019-05-03T12:42:05.939Z,97590.21
2019-05-03T12:44:36.578Z,97585.41
2019-05-03T12:47:08.166Z,97580.98
2019-05-03T12:49:39.041Z,97572.44
2019-05-03T12:52:10.762Z,97573.76
2019-05-03T12:54:42.356Z,97570.88
2019-05-03T12:57:12.945Z,97566.50
2019-05-03T13:00:01.357Z,97561.33
2019-05-03T13:02:41.948Z,97561.33
2019-05-03T13:05:12.361Z,97552.23
2019-05-03T13:07:50.311Z,97546.33
2019-05-03T13:10:23.265Z,97552.36
2019-05-03T13:12:53.498Z,97542.80
2019-05-03T13:15:24.553Z,97536.59
2019-05-03T13:17:55.461Z,97537.20
2019-05-03T13:20:26.134Z,97533.30
2019-05-03T13:22:56.770Z,97541.00
2019-05-03T13:25:27.581Z,97537.67
2019-05-03T13:27:57.992Z,97537.27
2019-05-03T13:30:28.472Z,97535.73
2019-05-03T13:32:58.906Z,97531.09
2019-05-03T13:35:29.321Z,97521.09
2019-05-03T13:37:59.777Z,97520.75
2019-05-03T13:40:30.829Z,97519.80
2019-05-03T13:43:03.755Z,97524.72
2019-05-03T13:45:35.376Z,97521.20
2019-05-03T13:48:05.284Z,97512.93
2019-05-03T13:50:35.645Z,97512.81
2019-05-03T13:53:06.218Z,97509.17
2019-05-03T13:55:36.542Z,97506.38
2019-05-03T13:58:06.769Z,97498.70
2019-05-03T14:00:37.134Z,97494.30
2019-05-03T14:03:07.500Z,97496.21
2019-05-03T14:05:38.074Z,97491.59
2019-05-03T14:08:08.522Z,97499.20
2019-05-03T14:10:38.827Z,97492.27
2019-05-03T14:13:09.259Z,97480.92
2019-05-03T14:15:39.865Z,97488.19
2019-05-03T14:18:10.379Z,97490.89
2019-05-03T14:21:05.713Z,97487.02
2019-05-03T14:23:54.005Z,97482.30
2019-05-03T14:26:24.627Z,97492.39
2019-05-03T14:28:56.382Z,97482.41
2019-05-03T14:31:26.903Z,97485.58
2019-05-03T14:33:57.331Z,97477.91
2019-05-03T14:36:27.826Z,97475.30
2019-05-03T14:38:58.609Z,97476.52
2019-05-03T14:41:28.956Z,97476.08
2019-05-03T14:43:59.288Z,97482.53
2019-05-03T14:46:33.174Z,97479.00
2019-05-03T14:49:01.636Z,97481.50
2019-05-03T14:51:32.008Z,97481.52
2019-05-03T14:54:02.637Z,97476.52
2019-05-03T14:56:51.981Z,97482.86
2019-05-03T14:59:59.524Z,97478.78
2019-05-03T15:02:55.402Z,97478.30
2019-05-03T15:05:25.454Z,97472.67
2019-05-03T15:07:56.027Z,97468.94
2019-05-03T15:10:26.838Z,97471.43
2019-05-03T15:12:58.935Z,97475.42
2019-05-03T15:15:29.184Z,97467.98
2019-05-03T15:17:59.490Z,97466.04
2019-05-03T15:20:29.869Z,97457.97
2019-05-03T15:23:00.520Z,97456.19
2019-05-03T15:25:31.127Z,97467.83
2019-05-03T15:28:07.702Z,97460.98
2019-05-03T15:30:38.373Z,97464.13
2019-05-03T15:33:08.668Z,97463.32
2019-05-03T15:35:39.053Z,97465.06
2019-05-03T15:38:09.539Z,97467.44
2019-05-03T15:40:40.135Z,97469.33
2019-05-03T15:43:34.658Z,97470.06
2019-05-03T15:46:20.798Z,97470.45
2019-05-03T15:48:55.101Z,97481.17
2019-05-03T15:51:25.699Z,97478.73
2019-05-03T15:53:56.145Z,97474.80
2019-05-03T15:56:26.482Z,97481.91
2019-05-03T15:58:57.248Z,97482.55
2019-05-03T16:01:28.627Z,97479.52
2019-05-03T16:03:58.966Z,97481.25
2019-05-03T16:06:29.612Z,97478.37
2019-05-03T16:09:00.175Z,97476.32
2019-05-03T16:11:30.553Z,97483.08
2019-05-03T16:14:07.680Z,97482.98
2019-05-03T16:16:38.294Z,97477.03
2019-05-03T16:19:08.738Z,97477.75
2019-05-03T16:21:39.756Z,97470.97
2019-05-03T16:24:10.088Z,97474.52
2019-05-03T16:26:59.363Z,97473.33
2019-05-03T16:29:30.016Z,97481.41
2019-05-03T16:32:00.373Z,97471.86
2019-05-03T16:34:30.999Z,97476.06
2019-05-03T16:37:01.458Z,97473.06
2019-05-03T16:39:32.022Z,97474.91
2019-05-03T16:42:04.232Z,97480.52
2019-05-03T16:44:35.133Z,97476.41
2019-05-03T16:47:07.281Z,97480.52
2019-05-03T16:49:38.534Z,97483.75
2019-05-03T16:52:08.841Z,97483.91
2019-05-03T16:54:39.786Z,97482.47
2019-05-03T16:57:10.458Z,97476.23
2019-05-03T16:59:40.965Z,97475.81
2019-05-03T17:02:11.431Z,97481.96
2019-05-03T17:05:05.161Z,97479.91
2019-05-03T17:07:46.533Z,97475.53
2019-05-03T17:10:26.883Z,97480.34
2019-05-03T17:13:06.086Z,97486.70
2019-05-03T17:15:36.613Z,97491.66
2019-05-03T17:18:07.910Z,97492.16
2019-05-03T17:20:39.391Z,97490.52
2019-05-03T17:23:09.724Z,97491.58
2019-05-03T17:25:40.541Z,97497.64
2019-05-03T17:28:10.994Z,97491.83
2019-05-03T17:30:41.270Z,97489.20
2019-05-03T17:33:11.480Z,97489.59
2019-05-03T17:35:42.089Z,97494.24
2019-05-03T17:38:12.433Z,97496.06
2019-05-03T17:41:10.823Z,97494.13
2019-05-03T17:43:51.024Z,97491.58
2019-05-03T17:46:21.461Z,97496.33
2019-05-03T17:48:54.693Z,97492.55
2019-05-03T17:51:43.014Z,97497.05
2019-05-03T17:54:35.737Z,97497.84
2019-05-03T17:57:09.960Z,97493.13
2019-05-03T17:59:44.563Z,97494.14
2019-05-03T18:02:44.981Z,97495.36
2019-05-03T18:05:25.003Z,97494.01
2019-05-03T18:08:13.024Z,97495.53
2019-05-03T18:10:47.665Z,97499.68
2019-05-03T18:13:18.152Z,97489.97
2019-05-03T18:15:48.568Z,97496.69
2019-05-03T18:18:18.892Z,97496.48
2019-05-03T18:20:49.337Z,97492.42
2019-05-03T18:23:19.977Z,97505.59
2019-05-03T18:25:50.908Z,97503.84
2019-05-03T18:28:21.322Z,97506.67
2019-05-03T18:30:51.863Z,97504.69
2019-05-03T18:33:24.582Z,97507.86
2019-05-03T18:35:55.139Z,97503.64
2019-05-03T18:38:25.768Z,97508.52
2019-05-03T18:40:56.437Z,97510.89
2019-05-03T18:43:36.082Z,97511.84
2019-05-03T18:46:34.634Z,97513.52
2019-05-03T18:49:05.211Z,97520.42
2019-05-03T18:51:35.808Z,97525.59
2019-05-03T18:54:10.108Z,97521.99
2019-05-03T18:56:40.629Z,97536.27
2019-05-03T18:59:11.518Z,97535.19
2019-05-03T19:01:42.403Z,97538.34
2019-05-03T19:04:37.875Z,97540.70
2019-05-03T19:07:14.954Z,97539.63
2019-05-03T19:10:19.904Z,97551.47
2019-05-03T19:12:57.529Z,97547.66
2019-05-03T19:15:29.819Z,97547.05
2019-05-03T19:18:22.186Z,97543.45
2019-05-03T19:20:54.971Z,97545.72
2019-05-03T19:23:25.097Z,97547.68
2019-05-03T19:25:55.649Z,97549.23
2019-05-03T19:28:26.064Z,97544.27
2019-05-03T19:30:58.018Z,97548.24
2019-05-03T19:33:28.639Z,97546.69
2019-05-03T19:36:00.360Z,97542.64
2019-05-03T19:38:30.870Z,97548.91
2019-05-03T19:41:01.424Z,97553.59
2019-05-03T19:43:32.159Z,97553.45
2019-05-03T19:46:04.622Z,97556.58
2019-05-03T19:48:34.946Z,97551.61
2019-05-03T19:51:06.709Z,97557.33
2019-05-03T19:53:56.313Z,97550.52
2019-05-03T19:56:27.428Z,97557.36
2019-05-03T19:59:04.811Z,97553.66
2019-05-03T20:01:52.673Z,97545.08
2019-05-03T20:04:42.069Z,97549.08
2019-05-03T20:07:30.364Z,97548.03
2019-05-03T20:10:00.878Z,97549.13
2019-05-03T20:12:31.377Z,97553.91
2019-05-03T20:15:02.398Z,97550.63
2019-05-03T20:17:34.601Z,97556.67
2019-05-03T20:20:05.475Z,97558.23
2019-05-03T20:22:36.058Z,97553.61
2019-05-03T20:25:07.318Z,97553.87
2019-05-03T20:27:37.956Z,97552.63
2019-05-03T20:30:08.750Z,97550.97
2019-05-03T20:32:39.264Z,97552.76
2019-05-03T20:35:18.056Z,97548.34
2019-05-03T20:37:42.163Z,97550.20
2019-05-03T20:40:15.366Z,97544.27
2019-05-03T20:43:12.257Z,97545.31
2019-05-03T20:46:15.119Z,97541.80
2019-05-03T20:48:48.619Z,97543.47
2019-05-03T20:51:19.353Z,97539.91
2019-05-03T20:53:52.434Z,97540.05
2019-05-03T20:56:24.642Z,97544.84
2019-05-03T20:58:55.098Z,97555.24
2019-05-03T21:01:25.993Z,97551.73
2019-05-03T21:03:56.406Z,97555.78
2019-05-03T21:06:35.392Z,97549.61
2019-05-03T21:08:59.582Z,97550.88
2019-05-03T21:11:29.923Z,97555.55
2019-05-03T21:14:00.194Z,97546.21
2019-05-03T21:16:52.282Z,97548.41
2019-05-03T21:19:47.679Z,97544.27
2019-05-03T21:22:24.909Z,97546.42
2019-05-03T21:25:01.725Z,97540.95
2019-05-03T21:27:32.399Z,97535.06
2019-05-03T21:30:04.602Z,97531.64
2019-05-03T21:32:35.141Z,97534.83
2019-05-03T21:35:06.455Z,97533.48
2019-05-03T21:37:36.879Z,97531.02
2019-05-03T21:40:07.409Z,97531.44
2019-05-03T21:42:37.611Z,97530.70
2019-05-03T21:45:09.596Z,97532.28
2019-05-03T21:48:01.752Z,97525.86
2019-05-03T21:50:32.340Z,97530.35
2019-05-03T21:53:06.004Z,97528.60
2019-05-03T21:55:36.691Z,97525.72
2019-05-03T21:58:06.958Z,97523.07
2019-05-03T22:00:45.882Z,97525.77
2019-05-03T22:03:16.249Z,97526.52
2019-05-03T22:05:54.509Z,97523.16
2019-05-03T22:08:18.563Z,97520.83
2019-05-03T22:10:48.805Z,97532.09
2019-05-03T22:13:18.968Z,97532.41
2019-05-03T22:15:54.169Z,97529.70
2019-05-03T22:18:25.999Z,97524.01
2019-05-03T22:21:18.277Z,97520.81
2019-05-03T22:24:16.704Z,97518.62
2019-05-03T22:27:09.628Z,97512.50
2019-05-03T22:29:39.861Z,97509.41
2019-05-03T22:32:10.017Z,97509.50
2019-05-03T22:34:40.503Z,97506.27
2019-05-03T22:37:10.649Z,97504.61
2019-05-03T22:39:41.994Z,97501.06
2019-05-03T22:42:12.217Z,97496.70
2019-05-03T22:44:42.533Z,97489.11
2019-05-03T22:47:14.760Z,97489.96
2019-05-03T22:49:45.743Z,97487.77
2019-05-03T22:52:16.329Z,97483.18
2019-05-03T22:54:46.678Z,97477.11
2019-05-03T22:57:17.153Z,97474.60
2019-05-03T22:59:47.313Z,97476.97
2019-05-03T23:02:17.503Z,97464.03
2019-05-03T23:04:47.615Z,97462.87
2019-05-03T23:07:17.753Z,97461.63
2019-05-03T23:09:48.112Z,97452.81
2019-05-03T23:12:19.344Z,97454.88
2019-05-03T23:14:49.523Z,97448.15
2019-05-03T23:17:19.820Z,97448.15
2019-05-03T23:19:56.534Z,97450.06
2019-05-03T23:22:29.314Z,97446.88
2019-05-03T23:25:00.852Z,97442.13
2019-05-03T23:27:31.202Z,97441.09
2019-05-03T23:30:01.841Z,97435.39
2019-05-03T23:32:32.395Z,97434.48
2019-05-03T23:35:02.564Z,97433.68
2019-05-03T23:37:34.602Z,97434.71
2019-05-03T23:40:08.697Z,97439.03
2019-05-03T23:42:39.135Z,97436.11
2019-05-03T23:45:09.454Z,97439.30
2019-05-03T23:47:44.884Z,97430.13
2019-05-03T23:50:20.213Z,97435.80
2019-05-03T23:52:51.767Z,97432.70
2019-05-03T23:55:39.079Z,97424.31
2019-05-03T23:58:09.487Z,97422.82
